Rogers City, Michigan
Current Conditions -  °F | °C
As of 7:54 AM on Friday 19 Dec 2014 (Local Time) from KPZQ Reporting Station
Overcast Overcast  
Wind Chill: 13°   Ceiling: 1600
Heat Index: 19°   Visibility: 10mi
Dew Point: 18°   Wind: 5mph
Humidity: 94%   Direction: 280°W
Pressure: 30.28"   Gusts: NA
Location:  45.42°N, 83.82°W
Report Text: KPZQ 191254Z AUTO 28004KT 10SM OVC016 M07/M08 A3028 RMK AO2 T10711079
Loading
Personal Weather Stations






























Interactive Weather Map New forecast layout! Learn more

10-Day Weather Forecast

Advertisements
Track Severe Weather on mobile